createdAt,value
2017-04-20T00:00:00.697Z,67.90
2017-04-20T00:00:59.929Z,67.60
2017-04-20T00:01:59.224Z,68.00
2017-04-20T00:02:58.476Z,68.30
2017-04-20T00:03:57.750Z,67.70
2017-04-20T00:04:56.973Z,67.80
2017-04-20T00:05:56.216Z,67.70
2017-04-20T00:06:55.457Z,67.80
2017-04-20T00:07:54.723Z,68.10
2017-04-20T00:08:53.962Z,68.40
2017-04-20T00:09:53.924Z,68.50
2017-04-20T00:10:53.141Z,68.30
2017-04-20T00:11:52.393Z,68.20
2017-04-20T00:12:51.607Z,68.50
2017-04-20T00:13:50.844Z,68.70
2017-04-20T00:14:50.115Z,69.60
2017-04-20T00:15:50.170Z,69.30
2017-04-20T00:16:49.473Z,69.40
2017-04-20T00:17:48.708Z,69.40
2017-04-20T00:18:47.957Z,69.50
2017-04-20T00:19:47.202Z,69.40
2017-04-20T00:20:46.468Z,69.70
2017-04-20T00:21:45.688Z,70.00
2017-04-20T00:22:44.921Z,70.40
2017-04-20T00:23:44.171Z,70.30
2017-04-20T00:24:43.432Z,70.10
2017-04-20T00:25:43.391Z,69.70
2017-04-20T00:26:42.617Z,69.60
2017-04-20T00:27:41.869Z,69.40
2017-04-20T00:28:41.079Z,69.60
2017-04-20T00:29:40.316Z,69.50
2017-04-20T00:30:39.581Z,69.60
2017-04-20T00:31:39.561Z,69.80
2017-04-20T00:32:39.647Z,70.00
2017-04-20T00:33:38.872Z,70.20
2017-04-20T00:34:38.439Z,70.20
2017-04-20T00:35:37.694Z,70.20
2017-04-20T00:36:36.973Z,70.20
2017-04-20T00:37:36.977Z,70.60
2017-04-20T00:38:36.233Z,70.70
2017-04-20T00:39:35.509Z,71.10
2017-04-20T00:40:34.749Z,71.30
2017-04-20T00:41:34.710Z,71.30
2017-04-20T00:42:33.936Z,71.50
2017-04-20T00:43:33.508Z,71.40
2017-04-20T00:44:32.832Z,71.50
2017-04-20T00:45:32.829Z,71.70
2017-04-20T00:46:32.097Z,71.80
2017-04-20T00:47:31.296Z,72.10
2017-04-20T00:48:30.541Z,72.50
2017-04-20T00:49:29.784Z,72.80
2017-04-20T00:50:29.024Z,72.80
2017-04-20T00:51:28.293Z,73.20
2017-04-20T00:52:27.526Z,73.70
2017-04-20T00:53:26.780Z,73.50
2017-04-20T00:54:26.017Z,74.00
2017-04-20T00:55:25.265Z,74.10
2017-04-20T00:56:24.493Z,74.70
2017-04-20T00:57:23.808Z,74.80
2017-04-20T00:58:23.819Z,75.10
2017-04-20T00:59:23.801Z,76.00
2017-04-20T01:00:23.097Z,75.20
2017-04-20T01:01:22.318Z,74.80
2017-04-20T01:02:21.545Z,74.60
2017-04-20T01:03:20.784Z,74.50
2017-04-20T01:04:20.739Z,74.50
2017-04-20T01:05:19.956Z,74.30
2017-04-20T01:06:19.238Z,73.80
2017-04-20T01:07:18.473Z,73.70
2017-04-20T01:08:17.696Z,74.00
2017-04-20T01:09:16.952Z,73.70
2017-04-20T01:10:16.247Z,73.50
2017-04-20T01:11:15.792Z,73.60
2017-04-20T01:12:15.067Z,73.60
2017-04-20T01:13:14.320Z,74.60
2017-04-20T01:14:13.528Z,74.10
2017-04-20T01:15:12.780Z,74.40
2017-04-20T01:16:11.994Z,74.60
2017-04-20T01:17:11.235Z,75.10
2017-04-20T01:18:10.501Z,74.30
2017-04-20T01:19:09.725Z,74.40
2017-04-20T01:20:08.964Z,74.40
2017-04-20T01:21:08.216Z,74.20
2017-04-20T01:22:07.993Z,74.60
2017-04-20T01:23:07.339Z,74.50
2017-04-20T01:24:06.589Z,74.60
2017-04-20T01:25:05.808Z,74.70
2017-04-20T01:26:05.049Z,74.30
2017-04-20T01:27:04.295Z,73.90
2017-04-20T01:28:03.520Z,73.60
2017-04-20T01:29:02.764Z,73.30
2017-04-20T01:30:01.987Z,73.10
2017-04-20T01:31:01.209Z,73.10
2017-04-20T01:32:00.471Z,72.80
2017-04-20T01:32:59.728Z,72.80
2017-04-20T01:33:58.950Z,72.90
2017-04-20T01:34:58.184Z,73.00
2017-04-20T01:35:58.171Z,72.90
2017-04-20T01:36:57.401Z,73.20
2017-04-20T01:37:56.672Z,73.20
2017-04-20T01:38:56.653Z,73.30
2017-04-20T01:39:55.863Z,73.50
2017-04-20T01:40:55.828Z,73.60
2017-04-20T01:41:55.064Z,73.90
2017-04-20T01:42:55.021Z,74.10
2017-04-20T01:43:54.261Z,74.30
2017-04-20T01:44:54.226Z,74.60
2017-04-20T01:45:53.466Z,75.00
2017-04-20T01:46:52.722Z,75.30
2017-04-20T01:47:51.969Z,76.00
2017-04-20T01:48:51.220Z,76.30
2017-04-20T01:49:51.176Z,76.20
2017-04-20T01:50:50.412Z,76.20
2017-04-20T01:51:49.632Z,76.50
2017-04-20T01:52:48.861Z,76.90
2017-04-20T01:53:48.080Z,77.00
2017-04-20T01:54:48.084Z,77.80
2017-04-20T01:55:47.353Z,77.20
2017-04-20T01:56:46.600Z,77.40
2017-04-20T01:57:45.828Z,77.90
2017-04-20T01:58:45.054Z,78.00
2017-04-20T01:59:45.260Z,78.00
2017-04-20T02:00:44.581Z,78.20
2017-04-20T02:01:43.829Z,78.30
2017-04-20T02:02:43.124Z,78.20
2017-04-20T02:03:42.472Z,78.60
2017-04-20T02:04:41.736Z,78.50
2017-04-20T02:05:41.012Z,78.70
2017-04-20T02:06:40.236Z,78.30
2017-04-20T02:07:39.462Z,78.10
2017-04-20T02:08:38.704Z,78.20
2017-04-20T02:09:38.008Z,77.80
2017-04-20T02:10:37.257Z,77.50
2017-04-20T02:11:37.228Z,77.00
2017-04-20T02:12:36.508Z,76.80
2017-04-20T02:13:36.483Z,76.30
2017-04-20T02:14:35.700Z,76.40
2017-04-20T02:15:34.928Z,76.40
2017-04-20T02:16:34.917Z,77.10
2017-04-20T02:17:34.133Z,76.40
2017-04-20T02:18:34.105Z,76.40
2017-04-20T02:19:33.365Z,76.40
2017-04-20T02:20:32.604Z,76.40
2017-04-20T02:21:31.930Z,76.30
2017-04-20T02:22:31.153Z,76.20
2017-04-20T02:23:30.389Z,75.90
2017-04-20T02:24:30.373Z,75.50
2017-04-20T02:25:29.641Z,75.40
2017-04-20T02:26:28.860Z,75.20
2017-04-20T02:27:28.150Z,75.20
2017-04-20T02:28:27.404Z,75.40
2017-04-20T02:29:27.369Z,75.40
2017-04-20T02:30:26.595Z,74.90
2017-04-20T02:31:25.819Z,75.60
2017-04-20T02:32:25.050Z,75.60
2017-04-20T02:33:24.337Z,75.70
2017-04-20T02:34:23.569Z,75.80
2017-04-20T02:35:22.817Z,75.60
2017-04-20T02:36:22.125Z,75.50
2017-04-20T02:37:21.359Z,75.50
2017-04-20T02:38:20.605Z,75.40
2017-04-20T02:39:19.830Z,75.30
2017-04-20T02:40:19.067Z,75.10
2017-04-20T02:41:18.385Z,75.10
2017-04-20T02:42:17.656Z,74.70
2017-04-20T02:43:17.296Z,74.20
2017-04-20T02:44:16.547Z,73.90
2017-04-20T02:45:15.786Z,74.10
2017-04-20T02:46:15.017Z,73.90
2017-04-20T02:47:14.268Z,73.90
2017-04-20T02:48:13.486Z,73.30
2017-04-20T02:49:12.748Z,73.30
2017-04-20T02:50:11.977Z,73.30
2017-04-20T02:51:11.206Z,73.40
2017-04-20T02:52:10.435Z,73.20
2017-04-20T02:53:09.649Z,73.20
2017-04-20T02:54:09.185Z,73.20
2017-04-20T02:55:08.449Z,73.00
2017-04-20T02:56:07.724Z,73.00
2017-04-20T02:57:06.952Z,73.10
2017-04-20T02:58:06.192Z,73.00
2017-04-20T02:59:05.456Z,73.10
2017-04-20T03:00:05.517Z,73.00
2017-04-20T03:01:04.809Z,72.80
2017-04-20T03:02:04.071Z,72.90
2017-04-20T03:03:03.297Z,73.10
2017-04-20T03:04:02.557Z,73.10
2017-04-20T03:05:02.097Z,72.90
2017-04-20T03:06:01.348Z,73.10
2017-04-20T03:07:00.600Z,73.20
2017-04-20T03:08:00.564Z,74.10
2017-04-20T03:08:59.785Z,73.40
2017-04-20T03:09:59.018Z,73.40
2017-04-20T03:10:58.257Z,73.30
2017-04-20T03:11:57.492Z,72.50
2017-04-20T03:12:56.717Z,72.90
2017-04-20T03:13:56.735Z,72.90
2017-04-20T03:14:55.969Z,73.20
2017-04-20T03:15:55.528Z,73.50
2017-04-20T03:16:54.770Z,73.60
2017-04-20T03:17:54.021Z,73.50
2017-04-20T03:18:53.237Z,73.10
2017-04-20T03:19:52.494Z,73.50
2017-04-20T03:20:52.484Z,73.30
2017-04-20T03:21:51.720Z,72.90
2017-04-20T03:22:51.009Z,73.20
2017-04-20T03:23:50.239Z,73.20
2017-04-20T03:24:49.502Z,72.80
2017-04-20T03:25:48.733Z,72.80
2017-04-20T03:26:48.334Z,73.10
2017-04-20T03:27:47.567Z,73.00
2017-04-20T03:28:46.876Z,72.90
2017-04-20T03:29:46.116Z,72.60
2017-04-20T03:30:45.360Z,72.80
2017-04-20T03:31:44.608Z,73.10
2017-04-20T03:32:44.605Z,73.30
2017-04-20T03:33:43.820Z,73.50
2017-04-20T03:34:43.035Z,73.10
2017-04-20T03:35:42.280Z,73.40
2017-04-20T03:36:42.316Z,73.10
2017-04-20T03:37:41.592Z,73.30
2017-04-20T03:38:40.812Z,73.30
2017-04-20T03:39:40.041Z,73.60
2017-04-20T03:40:39.309Z,74.00
2017-04-20T03:41:38.561Z,73.80
2017-04-20T03:42:37.809Z,74.10
2017-04-20T03:43:37.104Z,74.70
2017-04-20T03:44:36.341Z,74.90
2017-04-20T03:45:35.576Z,74.70
2017-04-20T03:46:34.783Z,74.80
2017-04-20T03:47:34.752Z,75.00
2017-04-20T03:48:34.000Z,75.30
2017-04-20T03:49:33.319Z,75.30
2017-04-20T03:50:32.528Z,75.40
2017-04-20T03:51:31.769Z,75.50
2017-04-20T03:52:30.988Z,75.90
2017-04-20T03:53:30.219Z,76.60
2017-04-20T03:54:29.467Z,75.90
2017-04-20T03:55:28.736Z,75.80
2017-04-20T03:56:27.949Z,76.20
2017-04-20T03:57:27.193Z,76.40
2017-04-20T03:58:26.438Z,76.70
2017-04-20T03:59:25.683Z,76.40
2017-04-20T04:00:24.928Z,77.10
2017-04-20T04:01:24.153Z,76.40
2017-04-20T04:02:23.389Z,76.40
2017-04-20T04:03:22.632Z,77.00
2017-04-20T04:04:21.874Z,77.20
2017-04-20T04:05:21.128Z,77.30
2017-04-20T04:06:20.373Z,77.70
2017-04-20T04:07:19.638Z,77.60
2017-04-20T04:08:18.891Z,77.80
2017-04-20T04:09:18.180Z,77.80
2017-04-20T04:10:17.444Z,78.40
2017-04-20T04:11:16.660Z,78.80
2017-04-20T04:12:15.871Z,78.90
2017-04-20T04:13:15.092Z,78.70
2017-04-20T04:14:14.340Z,78.50
2017-04-20T04:15:13.572Z,78.60
2017-04-20T04:16:12.810Z,78.50
2017-04-20T04:17:15.964Z,78.50
2017-04-20T04:18:15.179Z,78.50
2017-04-20T04:19:14.795Z,78.60
2017-04-20T04:20:14.057Z,79.00
2017-04-20T04:21:13.351Z,79.50
2017-04-20T04:22:12.605Z,78.30
2017-04-20T04:23:11.830Z,78.10
2017-04-20T04:24:11.069Z,78.00
2017-04-20T04:25:10.328Z,78.00
2017-04-20T04:26:09.566Z,78.30
2017-04-20T04:27:08.821Z,78.20
2017-04-20T04:28:08.076Z,78.20
2017-04-20T04:29:07.292Z,79.00
2017-04-20T04:30:06.513Z,78.60
2017-04-20T04:31:06.508Z,78.50
2017-04-20T04:32:05.744Z,78.50
2017-04-20T04:33:04.974Z,78.60
2017-04-20T04:34:04.184Z,78.50
2017-04-20T04:35:03.424Z,78.50
2017-04-20T04:36:02.793Z,78.30
2017-04-20T04:37:02.780Z,78.40
2017-04-20T04:38:02.013Z,78.10
2017-04-20T04:39:01.206Z,78.20
2017-04-20T04:40:00.445Z,78.10
2017-04-20T04:40:59.657Z,78.40
2017-04-20T04:41:58.869Z,78.40
2017-04-20T04:42:58.113Z,78.20
2017-04-20T04:43:57.340Z,78.10
2017-04-20T04:44:56.636Z,78.20
2017-04-20T04:45:55.885Z,78.00
2017-04-20T04:46:55.102Z,77.90
2017-04-20T04:47:54.456Z,78.00
2017-04-20T04:48:53.664Z,77.60
2017-04-20T04:49:52.892Z,77.30
2017-04-20T04:50:52.122Z,77.10
2017-04-20T04:51:51.369Z,76.60
2017-04-20T04:52:50.625Z,76.00
2017-04-20T04:53:49.841Z,75.40
2017-04-20T04:54:49.062Z,75.10
2017-04-20T04:55:48.295Z,74.60
2017-04-20T04:56:48.265Z,74.00
2017-04-20T04:57:47.492Z,73.30
2017-04-20T04:58:47.479Z,72.90
2017-04-20T04:59:46.712Z,72.70
2017-04-20T05:00:46.013Z,72.00
2017-04-20T05:01:45.269Z,71.30
2017-04-20T05:02:45.247Z,71.20
2017-04-20T05:03:44.568Z,70.50
2017-04-20T05:04:43.792Z,69.80
2017-04-20T05:05:43.034Z,68.80
2017-04-20T05:06:42.244Z,68.80
2017-04-20T05:07:42.205Z,68.80
2017-04-20T05:08:41.430Z,68.90
2017-04-20T05:09:41.452Z,68.90
2017-04-20T05:10:41.602Z,68.30
2017-04-20T05:11:40.831Z,68.40
2017-04-20T05:12:40.051Z,69.00
2017-04-20T05:13:39.283Z,67.70
2017-04-20T05:14:38.545Z,67.60
2017-04-20T05:15:37.781Z,67.40
2017-04-20T05:16:37.006Z,67.00
2017-04-20T05:17:36.240Z,67.70
2017-04-20T05:18:35.457Z,66.20
2017-04-20T05:19:34.697Z,65.90
2017-04-20T05:20:33.934Z,65.90
2017-04-20T05:21:33.224Z,65.60
2017-04-20T05:22:32.432Z,65.10
2017-04-20T05:23:31.653Z,64.80
2017-04-20T05:24:30.856Z,64.50
2017-04-20T05:25:30.089Z,64.30
2017-04-20T05:26:30.090Z,64.40
2017-04-20T05:27:29.331Z,63.70
2017-04-20T05:28:28.585Z,63.40
2017-04-20T05:29:27.832Z,64.00
2017-04-20T05:30:27.088Z,62.50
2017-04-20T05:31:26.325Z,60.80
2017-04-20T05:32:25.576Z,60.80
2017-04-20T05:33:24.821Z,61.50
2017-04-20T05:34:24.813Z,61.10
2017-04-20T05:35:24.048Z,58.30
2017-04-20T05:36:23.384Z,54.10
2017-04-20T05:37:22.629Z,49.10
2017-04-20T05:38:21.844Z,47.20
2017-04-20T05:39:21.064Z,48.40
2017-04-20T05:40:20.316Z,49.60
2017-04-20T05:41:19.523Z,50.90
2017-04-20T05:42:18.785Z,51.30
2017-04-20T05:43:18.016Z,52.10
2017-04-20T05:44:17.283Z,50.50
2017-04-20T05:45:16.517Z,46.70
2017-04-20T05:46:16.485Z,43.70
2017-04-20T05:47:15.753Z,39.70
2017-04-20T05:48:14.980Z,36.30
2017-04-20T05:49:14.209Z,34.00
2017-04-20T05:50:13.434Z,32.50
2017-04-20T05:51:12.680Z,31.50
2017-04-20T05:52:11.918Z,29.90
2017-04-20T05:53:11.207Z,29.50
2017-04-20T05:54:10.462Z,29.20
2017-04-20T05:55:09.684Z,28.80
2017-04-20T05:56:08.912Z,28.80
2017-04-20T05:57:08.874Z,28.60
2017-04-20T05:58:08.188Z,28.00
2017-04-20T05:59:07.444Z,27.30
2017-04-20T06:00:06.684Z,26.80
2017-04-20T06:01:05.914Z,26.90
2017-04-20T06:02:05.136Z,27.00
2017-04-20T06:03:04.364Z,27.00
2017-04-20T06:04:04.394Z,26.70
2017-04-20T06:05:03.616Z,26.10
2017-04-20T06:06:02.832Z,26.20
2017-04-20T06:07:02.052Z,25.40
2017-04-20T06:08:01.260Z,25.00
2017-04-20T06:09:00.489Z,25.30
2017-04-20T06:09:59.711Z,25.40
2017-04-20T06:10:58.937Z,25.30
2017-04-20T06:11:58.158Z,25.40
2017-04-20T06:12:57.384Z,24.90
2017-04-20T06:13:56.599Z,26.00
2017-04-20T06:14:55.895Z,26.40
2017-04-20T06:15:55.117Z,28.40
2017-04-20T06:16:54.345Z,31.20
2017-04-20T06:17:53.556Z,34.00
2017-04-20T06:18:52.775Z,38.00
2017-04-20T06:19:52.026Z,40.60
2017-04-20T06:20:51.305Z,42.60
2017-04-20T06:21:50.517Z,43.70
2017-04-20T06:22:49.741Z,43.70
2017-04-20T06:23:48.988Z,42.10
2017-04-20T06:24:48.213Z,41.20
2017-04-20T06:25:47.456Z,40.60
2017-04-20T06:26:46.717Z,40.60
2017-04-20T06:27:46.682Z,40.20
2017-04-20T06:28:45.904Z,39.50
2017-04-20T06:29:45.169Z,40.20
2017-04-20T06:30:44.392Z,39.90
2017-04-20T06:31:44.342Z,39.50
2017-04-20T06:32:43.589Z,40.60
2017-04-20T06:33:43.547Z,41.60
2017-04-20T06:34:42.773Z,41.90
2017-04-20T06:35:42.004Z,43.00
2017-04-20T06:36:41.259Z,43.30
2017-04-20T06:37:40.569Z,44.00
2017-04-20T06:38:39.820Z,45.70
2017-04-20T06:39:39.038Z,45.90
2017-04-20T06:40:39.080Z,46.40
2017-04-20T06:41:38.319Z,45.80
2017-04-20T06:42:38.281Z,46.10
2017-04-20T06:43:37.536Z,45.90
2017-04-20T06:44:36.749Z,47.30
2017-04-20T06:45:35.969Z,47.70
2017-04-20T06:46:35.187Z,47.50
2017-04-20T06:47:35.154Z,48.20
2017-04-20T06:48:34.424Z,49.10
2017-04-20T06:49:33.699Z,48.30
2017-04-20T06:50:32.932Z,49.30
2017-04-20T06:51:32.149Z,49.00
2017-04-20T06:52:32.124Z,50.00
2017-04-20T06:53:31.392Z,47.40
2017-04-20T06:54:30.634Z,47.10
2017-04-20T06:55:29.892Z,47.30
2017-04-20T06:56:29.120Z,46.80
2017-04-20T06:57:29.069Z,47.20
2017-04-20T06:58:28.316Z,46.00
2017-04-20T06:59:27.548Z,46.60
2017-04-20T07:00:26.833Z,47.50
2017-04-20T07:01:26.089Z,45.40
2017-04-20T07:02:26.111Z,45.90
2017-04-20T07:03:25.446Z,44.20
2017-04-20T07:04:24.672Z,44.10
2017-04-20T07:05:24.640Z,44.40
2017-04-20T07:06:23.865Z,43.70
2017-04-20T07:07:23.122Z,43.70
2017-04-20T07:08:22.357Z,43.40
2017-04-20T07:09:22.324Z,42.60
2017-04-20T07:10:21.536Z,42.30
2017-04-20T07:11:20.764Z,41.80
2017-04-20T07:12:19.980Z,42.40
2017-04-20T07:13:19.972Z,42.80
2017-04-20T07:14:19.177Z,41.90
2017-04-20T07:15:18.390Z,41.90
2017-04-20T07:16:17.624Z,42.30
2017-04-20T07:17:16.836Z,42.40
2017-04-20T07:18:16.097Z,42.50
2017-04-20T07:19:15.325Z,43.40
2017-04-20T07:20:14.538Z,43.50
2017-04-20T07:21:13.760Z,42.90
2017-04-20T07:22:13.024Z,42.50
2017-04-20T07:23:12.240Z,41.10
2017-04-20T07:24:11.508Z,39.90
2017-04-20T07:25:11.472Z,40.20
2017-04-20T07:26:10.712Z,40.50
2017-04-20T07:27:10.716Z,41.40
2017-04-20T07:28:10.777Z,40.50
2017-04-20T07:29:10.031Z,40.40
2017-04-20T07:30:09.312Z,40.60
2017-04-20T07:31:08.528Z,38.70
2017-04-20T07:32:07.761Z,39.80
2017-04-20T07:33:06.994Z,39.30
2017-04-20T07:34:06.228Z,39.80
2017-04-20T07:35:05.464Z,41.30
2017-04-20T07:36:04.741Z,41.80
2017-04-20T07:37:04.705Z,42.80
2017-04-20T07:38:03.941Z,43.10
2017-04-20T07:39:03.340Z,40.30
2017-04-20T07:40:02.568Z,40.50
2017-04-20T07:41:01.845Z,40.50
2017-04-20T07:42:01.121Z,42.30
2017-04-20T07:43:00.362Z,40.20
2017-04-20T07:43:59.589Z,40.80
2017-04-20T07:44:58.826Z,40.00
2017-04-20T07:45:58.818Z,40.40
2017-04-20T07:46:58.096Z,38.90
2017-04-20T07:47:57.318Z,39.60
2017-04-20T07:48:56.540Z,39.70
2017-04-20T07:49:56.511Z,40.70
2017-04-20T07:50:55.757Z,39.70
2017-04-20T07:51:54.977Z,39.10
2017-04-20T07:52:54.223Z,38.40
2017-04-20T07:53:54.212Z,39.00
2017-04-20T07:54:53.434Z,38.60
2017-04-20T07:55:52.713Z,38.80
2017-04-20T07:56:51.937Z,38.70
2017-04-20T07:57:51.200Z,35.90
2017-04-20T07:58:50.421Z,37.20
2017-04-20T07:59:49.642Z,35.40
2017-04-20T08:00:48.865Z,35.90
2017-04-20T08:01:48.258Z,36.70
2017-04-20T08:02:47.476Z,36.30
2017-04-20T08:03:46.736Z,36.60
2017-04-20T08:04:45.961Z,36.40
2017-04-20T08:05:45.174Z,34.00
2017-04-20T08:06:44.389Z,35.20
2017-04-20T08:07:43.604Z,36.00
2017-04-20T08:08:42.810Z,35.80
2017-04-20T08:09:42.059Z,34.60
2017-04-20T08:10:41.280Z,34.20
2017-04-20T08:11:40.513Z,33.20
2017-04-20T08:12:39.739Z,32.40
2017-04-20T08:13:38.956Z,31.80
2017-04-20T08:14:38.174Z,32.60
2017-04-20T08:15:37.458Z,29.90
2017-04-20T08:16:36.684Z,30.80
2017-04-20T08:17:36.736Z,29.60
2017-04-20T08:18:35.967Z,29.40
2017-04-20T08:19:35.180Z,29.50
2017-04-20T08:20:34.405Z,29.90
2017-04-20T08:21:33.665Z,31.50
2017-04-20T08:22:32.890Z,29.40
2017-04-20T08:23:32.105Z,29.30
2017-04-20T08:24:31.337Z,28.90
2017-04-20T08:25:30.567Z,28.50
2017-04-20T08:26:29.817Z,28.60
2017-04-20T08:27:29.143Z,28.10
2017-04-20T08:28:28.376Z,29.10
2017-04-20T08:29:27.596Z,28.40
2017-04-20T08:30:26.832Z,28.10
2017-04-20T08:31:26.070Z,28.50
2017-04-20T08:32:25.311Z,29.40
2017-04-20T08:33:24.573Z,28.90
2017-04-20T08:34:23.800Z,29.40
2017-04-20T08:35:23.823Z,29.20
2017-04-20T08:36:23.064Z,29.90
2017-04-20T08:37:22.281Z,29.10
2017-04-20T08:38:21.510Z,28.90
2017-04-20T08:39:20.734Z,27.30
2017-04-20T08:40:19.968Z,28.30
2017-04-20T08:41:19.957Z,27.70
2017-04-20T08:42:19.183Z,28.80
2017-04-20T08:43:18.457Z,27.90
2017-04-20T08:44:17.698Z,26.10
2017-04-20T08:45:16.909Z,26.10
2017-04-20T08:46:16.148Z,25.70
2017-04-20T08:47:15.376Z,26.40
2017-04-20T08:48:14.618Z,26.10
2017-04-20T08:49:13.883Z,25.60
2017-04-20T08:50:13.125Z,26.30
2017-04-20T08:51:12.351Z,26.80
2017-04-20T08:52:11.586Z,27.20
2017-04-20T08:53:10.816Z,26.50
2017-04-20T08:54:10.085Z,26.60
2017-04-20T08:55:09.337Z,26.20
2017-04-20T08:56:08.544Z,25.80
2017-04-20T08:57:07.769Z,26.90
2017-04-20T08:58:07.002Z,27.40
2017-04-20T08:59:06.216Z,28.20
2017-04-20T09:00:05.712Z,27.50
2017-04-20T09:01:05.077Z,27.00
2017-04-20T09:02:04.326Z,27.60
2017-04-20T09:03:03.553Z,27.90
2017-04-20T09:04:02.784Z,28.10
2017-04-20T09:05:02.028Z,27.00
2017-04-20T09:06:01.289Z,26.20
2017-04-20T09:07:00.527Z,28.50
2017-04-20T09:07:59.765Z,27.20
2017-04-20T09:08:58.993Z,28.00
2017-04-20T09:09:58.266Z,27.40
2017-04-20T09:10:57.497Z,27.80
2017-04-20T09:11:56.780Z,25.40
2017-04-20T09:12:55.995Z,25.70
2017-04-20T09:13:55.201Z,27.00
2017-04-20T09:14:54.520Z,26.20
2017-04-20T09:15:54.502Z,26.20
2017-04-20T09:16:53.776Z,26.90
2017-04-20T09:17:53.024Z,26.20
2017-04-20T09:18:52.250Z,26.20
2017-04-20T09:19:51.489Z,26.00
2017-04-20T09:20:50.726Z,27.70
2017-04-20T09:21:49.941Z,25.80
2017-04-20T09:22:49.173Z,26.70
2017-04-20T09:23:48.400Z,27.80
2017-04-20T09:24:47.633Z,26.60
2017-04-20T09:25:46.843Z,26.10
2017-04-20T09:26:46.078Z,25.00
2017-04-20T09:27:45.313Z,23.60
2017-04-20T09:28:44.533Z,23.80
2017-04-20T09:29:43.754Z,24.30
2017-04-20T09:30:42.975Z,25.70
2017-04-20T09:31:42.220Z,24.80
2017-04-20T09:32:41.420Z,25.00
2017-04-20T09:33:40.684Z,26.40
2017-04-20T09:34:39.899Z,25.90
2017-04-20T09:35:39.119Z,26.10
2017-04-20T09:36:38.352Z,26.20
2017-04-20T09:37:37.581Z,26.60
2017-04-20T09:38:37.541Z,26.70
2017-04-20T09:39:36.793Z,26.80
2017-04-20T09:40:36.020Z,28.40
2017-04-20T09:41:35.288Z,27.60
2017-04-20T09:42:34.640Z,28.20
2017-04-20T09:43:33.860Z,27.70
2017-04-20T09:44:33.101Z,28.60
2017-04-20T09:45:32.374Z,28.60
2017-04-20T09:46:31.621Z,29.70
2017-04-20T09:47:30.886Z,30.00
2017-04-20T09:48:30.188Z,28.00
2017-04-20T09:49:30.167Z,27.90
2017-04-20T09:50:29.383Z,27.30
2017-04-20T09:51:29.410Z,28.50
2017-04-20T09:52:28.692Z,29.00
2017-04-20T09:53:27.944Z,28.60
2017-04-20T09:54:27.185Z,28.60
2017-04-20T09:55:26.408Z,28.00
2017-04-20T09:56:25.635Z,28.30
2017-04-20T09:57:24.896Z,27.00
2017-04-20T09:58:24.112Z,27.50
2017-04-20T09:59:23.345Z,27.30
2017-04-20T10:00:22.605Z,27.10
2017-04-20T10:01:21.914Z,26.70
2017-04-20T10:02:21.129Z,27.20
2017-04-20T10:03:20.396Z,27.30
2017-04-20T10:04:19.729Z,26.50
2017-04-20T10:05:18.987Z,27.20
2017-04-20T10:06:18.217Z,26.70
2017-04-20T10:07:17.460Z,27.00
2017-04-20T10:08:16.681Z,25.90
2017-04-20T10:09:15.936Z,27.40
2017-04-20T10:10:15.196Z,27.20
2017-04-20T10:11:14.479Z,27.70
2017-04-20T10:12:14.460Z,25.60
2017-04-20T10:13:13.745Z,26.50
2017-04-20T10:14:13.025Z,26.10
2017-04-20T10:15:12.292Z,26.40
2017-04-20T10:16:11.524Z,26.10
2017-04-20T10:17:10.748Z,26.10
2017-04-20T10:18:09.979Z,24.60
2017-04-20T10:19:09.204Z,25.80
2017-04-20T10:20:08.462Z,26.70
2017-04-20T10:21:07.668Z,26.10
2017-04-20T10:22:06.881Z,25.80
2017-04-20T10:23:06.296Z,27.50
2017-04-20T10:24:05.515Z,26.80
2017-04-20T10:25:04.797Z,28.40
2017-04-20T10:26:04.074Z,27.20
2017-04-20T10:27:03.327Z,28.50
2017-04-20T10:28:02.548Z,27.70
2017-04-20T10:29:01.778Z,26.80
2017-04-20T10:30:01.032Z,26.60
2017-04-20T10:31:00.646Z,27.90
2017-04-20T10:32:00.017Z,28.10
2017-04-20T10:32:59.281Z,28.70
2017-04-20T10:33:58.620Z,28.90
2017-04-20T10:34:57.849Z,28.30
2017-04-20T10:35:57.118Z,27.80
2017-04-20T10:36:56.336Z,27.50
2017-04-20T10:37:55.705Z,27.50
2017-04-20T10:38:54.926Z,28.00
2017-04-20T10:39:54.218Z,26.90
2017-04-20T10:40:53.458Z,26.70
2017-04-20T10:41:53.481Z,25.70
2017-04-20T10:42:52.705Z,26.40
2017-04-20T10:43:51.980Z,27.70
2017-04-20T10:44:51.204Z,27.60
2017-04-20T10:45:50.438Z,28.30
2017-04-20T10:46:49.760Z,26.50
2017-04-20T10:47:49.738Z,26.30
2017-04-20T10:48:49.010Z,24.90
2017-04-20T10:49:48.294Z,23.80
2017-04-20T10:50:47.840Z,23.30
2017-04-20T10:51:47.824Z,23.20
2017-04-20T10:52:47.100Z,23.50
2017-04-20T10:53:46.592Z,22.50
2017-04-20T10:54:45.864Z,23.90
2017-04-20T10:55:45.233Z,25.10
2017-04-20T10:56:44.516Z,25.00
2017-04-20T10:57:43.810Z,26.00
2017-04-20T10:58:43.885Z,25.80
2017-04-20T10:59:43.127Z,26.90
2017-04-20T11:00:42.477Z,27.10
2017-04-20T11:01:41.817Z,26.60
2017-04-20T11:02:41.036Z,26.10
2017-04-20T11:03:40.606Z,25.70
2017-04-20T11:04:40.000Z,26.60
2017-04-20T11:05:39.276Z,25.90
2017-04-20T11:06:38.517Z,27.30
2017-04-20T11:07:37.751Z,26.30
2017-04-20T11:08:36.984Z,26.10
2017-04-20T11:09:36.917Z,26.10
2017-04-20T11:10:36.175Z,26.70
2017-04-20T11:11:35.416Z,26.40
2017-04-20T11:12:34.698Z,25.90
2017-04-20T11:13:34.744Z,25.70
2017-04-20T11:14:34.328Z,26.50
2017-04-20T11:15:33.562Z,28.00
2017-04-20T11:16:32.860Z,27.10
2017-04-20T11:17:32.124Z,27.80
2017-04-20T11:18:31.400Z,27.80
2017-04-20T11:19:30.620Z,27.50
2017-04-20T11:20:30.629Z,27.60
2017-04-20T11:21:29.868Z,27.00
2017-04-20T11:22:29.087Z,27.20
2017-04-20T11:23:28.345Z,27.30
2017-04-20T11:24:28.319Z,27.00
2017-04-20T11:25:27.545Z,26.30
2017-04-20T11:26:26.764Z,26.30
2017-04-20T11:27:25.974Z,26.30
2017-04-20T11:28:25.222Z,26.10
2017-04-20T11:29:24.477Z,27.20
2017-04-20T11:30:24.433Z,26.10
2017-04-20T11:31:23.673Z,27.60
2017-04-20T11:32:22.889Z,27.90
2017-04-20T11:33:22.102Z,27.70
2017-04-20T11:34:21.332Z,28.80
2017-04-20T11:35:20.579Z,28.30
2017-04-20T11:36:19.809Z,27.10
2017-04-20T11:37:19.114Z,26.40
2017-04-20T11:38:19.097Z,26.40
2017-04-20T11:39:18.343Z,25.90
2017-04-20T11:40:17.569Z,25.70
2017-04-20T11:41:16.845Z,24.90
2017-04-20T11:42:16.094Z,25.60
2017-04-20T11:43:15.329Z,24.50
2017-04-20T11:44:14.904Z,25.80
2017-04-20T11:45:14.204Z,25.70
2017-04-20T11:46:13.540Z,26.00
2017-04-20T11:47:13.529Z,27.90
2017-04-20T11:48:12.865Z,26.40
2017-04-20T11:49:12.459Z,27.30
2017-04-20T11:50:12.009Z,26.90
2017-04-20T11:51:11.996Z,26.30
2017-04-20T11:52:11.627Z,26.50
2017-04-20T11:53:10.896Z,27.00
2017-04-20T11:54:10.121Z,28.40
2017-04-20T11:55:10.099Z,29.40
2017-04-20T11:56:09.353Z,28.30
2017-04-20T11:57:08.590Z,27.10
2017-04-20T11:58:07.860Z,26.90
2017-04-20T11:59:07.080Z,27.00
2017-04-20T12:00:06.304Z,27.40
2017-04-20T12:01:05.600Z,27.20
2017-04-20T12:02:04.816Z,27.40
2017-04-20T12:03:04.048Z,26.80
2017-04-20T12:04:04.062Z,26.50
2017-04-20T12:05:04.060Z,26.60
2017-04-20T12:06:04.059Z,26.40
2017-04-20T12:07:03.329Z,26.80
2017-04-20T12:08:02.565Z,26.90
2017-04-20T12:09:01.801Z,27.40
2017-04-20T12:10:01.076Z,27.30
2017-04-20T12:11:00.303Z,28.10
2017-04-20T12:11:59.562Z,28.10
2017-04-20T12:12:58.805Z,28.50
2017-04-20T12:13:58.794Z,28.80
2017-04-20T12:14:58.012Z,29.50
2017-04-20T12:15:57.248Z,27.80
2017-04-20T12:16:56.468Z,27.80
2017-04-20T12:17:56.448Z,26.90
2017-04-20T12:18:55.674Z,27.40
2017-04-20T12:19:55.657Z,27.40
2017-04-20T12:20:54.921Z,27.00
2017-04-20T12:21:54.190Z,25.20
2017-04-20T12:22:53.421Z,24.50
2017-04-20T12:23:52.664Z,24.30
2017-04-20T12:24:51.914Z,23.40
2017-04-20T12:25:51.881Z,25.40
2017-04-20T12:26:51.160Z,22.60
2017-04-20T12:27:50.428Z,22.40
2017-04-20T12:28:49.685Z,24.20
2017-04-20T12:29:48.937Z,24.30
2017-04-20T12:30:48.163Z,24.80
2017-04-20T12:31:47.417Z,24.10
2017-04-20T12:32:46.673Z,23.00
2017-04-20T12:33:45.941Z,23.00
2017-04-20T12:34:45.931Z,23.00
2017-04-20T12:35:45.187Z,23.10
2017-04-20T12:36:44.419Z,23.60
2017-04-20T12:37:43.696Z,23.60
2017-04-20T12:38:42.996Z,23.20
2017-04-20T12:39:42.221Z,23.50
2017-04-20T12:40:41.472Z,24.60
2017-04-20T12:41:40.689Z,24.70
2017-04-20T12:42:40.672Z,23.80
2017-04-20T12:43:39.920Z,23.80